createdAt,value
2022-08-03T00:01:34.975Z,100574.59
2022-08-03T00:04:01.868Z,100575.44
2022-08-03T00:06:28.319Z,100570.91
2022-08-03T00:08:54.843Z,100574.44
2022-08-03T00:11:21.331Z,100574.59
2022-08-03T00:13:47.802Z,100563.84
2022-08-03T00:16:14.350Z,100565.53
2022-08-03T00:18:41.312Z,100551.84
2022-08-03T00:21:07.888Z,100558.84
2022-08-03T00:23:52.087Z,100561.97
2022-08-03T00:26:20.670Z,100566.38
2022-08-03T00:28:47.477Z,100567.22
2022-08-03T00:31:13.967Z,100566.38
2022-08-03T00:33:58.782Z,100564.00
2022-08-03T00:36:28.071Z,100570.91
2022-08-03T00:38:55.361Z,100569.91
2022-08-03T00:41:21.828Z,100568.06
2022-08-03T00:43:48.511Z,100554.44
2022-08-03T00:46:19.211Z,100559.16
2022-08-03T00:48:51.774Z,100548.41
2022-08-03T00:51:19.881Z,100554.28
2022-08-03T00:53:46.552Z,100542.56
2022-08-03T00:56:15.079Z,100552.78
2022-08-03T00:58:43.678Z,100562.50
2022-08-03T01:01:10.458Z,100552.56
2022-08-03T01:03:36.975Z,100558.16
2022-08-03T01:06:38.754Z,100554.44
2022-08-03T01:09:17.144Z,100558.81
2022-08-03T01:11:59.798Z,100556.28
2022-08-03T01:14:34.394Z,100568.91
2022-08-03T01:17:40.103Z,100557.94
2022-08-03T01:20:11.591Z,100541.19
2022-08-03T01:22:51.967Z,100559.81
2022-08-03T01:25:33.195Z,100545.53
2022-08-03T01:28:37.003Z,100549.03
2022-08-03T01:31:13.203Z,100539.78
2022-08-03T01:33:49.388Z,100523.84
2022-08-03T01:36:24.548Z,100431.91
2022-08-03T01:38:55.327Z,100532.91
2022-08-03T01:41:30.756Z,100535.59
2022-08-03T01:44:29.417Z,100532.06
2022-08-03T01:46:49.998Z,100522.97
2022-08-03T01:49:18.090Z,100524.81
2022-08-03T01:51:57.722Z,100532.91
2022-08-03T01:54:34.839Z,100518.47
2022-08-03T01:57:02.866Z,100529.22
2022-08-03T01:59:32.409Z,100534.59
2022-08-03T02:02:27.683Z,100525.16
2022-08-03T02:04:49.035Z,100528.34
2022-08-03T02:07:16.315Z,100534.59
2022-08-03T02:09:46.887Z,100530.88
2022-08-03T02:12:15.324Z,100517.91
2022-08-03T02:14:44.326Z,100531.91
2022-08-03T02:17:12.518Z,100536.25
2022-08-03T02:19:40.732Z,100532.91
2022-08-03T02:22:10.711Z,100528.19
2022-08-03T02:24:37.762Z,100521.97
2022-08-03T02:27:10.593Z,100530.03
2022-08-03T02:29:41.194Z,100530.88
2022-08-03T02:32:17.282Z,100520.09
2022-08-03T02:34:48.891Z,100521.81
2022-08-03T02:37:19.339Z,100522.78
2022-08-03T02:39:47.852Z,100506.22
2022-08-03T02:42:18.706Z,100513.88
2022-08-03T02:44:49.470Z,100501.28
2022-08-03T02:47:20.982Z,100512.84
2022-08-03T02:49:52.076Z,100513.69
2022-08-03T02:52:24.467Z,100491.06
2022-08-03T02:54:54.936Z,100508.31
2022-08-03T02:57:22.892Z,100506.66
2022-08-03T02:59:50.551Z,100501.25
2022-08-03T03:02:18.499Z,100505.63
2022-08-03T03:05:51.101Z,100461.59
2022-08-03T03:07:51.370Z,100484.31
2022-08-03T03:10:22.150Z,100494.69
2022-08-03T03:12:51.691Z,100497.38
2022-08-03T03:15:18.903Z,100501.91
2022-08-03T03:17:46.486Z,100491.97
2022-08-03T03:20:14.753Z,100502.75
2022-08-03T03:22:41.383Z,100470.03
2022-08-03T03:25:11.951Z,100483.44
2022-08-03T03:27:39.809Z,100485.59
2022-08-03T03:30:07.091Z,100495.34
2022-08-03T03:32:33.883Z,100485.63
2022-08-03T03:35:01.170Z,100499.88
2022-08-03T03:37:27.684Z,100505.09
2022-08-03T03:39:54.893Z,100493.47
2022-08-03T03:42:21.660Z,100483.44
2022-08-03T03:44:48.485Z,100502.41
2022-08-03T03:47:15.028Z,100482.53
2022-08-03T03:49:44.012Z,100481.69
2022-08-03T03:52:10.767Z,100479.19
2022-08-03T03:54:44.844Z,100475.28
2022-08-03T03:57:13.084Z,100473.41
2022-08-03T03:59:43.503Z,100474.28
2022-08-03T04:02:11.350Z,100470.72
2022-08-03T04:04:57.331Z,100449.63
2022-08-03T04:07:43.858Z,100472.41
2022-08-03T04:10:37.373Z,100464.22
2022-08-03T04:13:09.993Z,100456.34
2022-08-03T04:15:39.615Z,100454.28
2022-08-03T04:18:09.915Z,100472.25
2022-08-03T04:20:39.345Z,100466.88
2022-08-03T04:23:14.214Z,100462.84
2022-08-03T04:25:43.886Z,100462.19
2022-08-03T04:28:29.621Z,100470.38
2022-08-03T04:31:00.003Z,100463.13
2022-08-03T04:33:29.662Z,100434.00
2022-08-03T04:36:02.576Z,100459.44
2022-08-03T04:38:31.694Z,100464.81
2022-08-03T04:40:59.843Z,100448.09
2022-08-03T04:43:27.813Z,100457.81
2022-08-03T04:45:54.778Z,100465.66
2022-08-03T04:48:21.559Z,100454.13
2022-08-03T04:50:48.605Z,100447.44
2022-08-03T04:53:17.164Z,100471.88
2022-08-03T04:55:43.656Z,100463.78
2022-08-03T04:58:10.428Z,100466.66
2022-08-03T05:00:36.975Z,100471.88
2022-08-03T05:03:03.427Z,100453.97
2022-08-03T05:05:49.732Z,100468.19
2022-08-03T05:08:16.859Z,100429.16
2022-08-03T05:10:47.740Z,100474.38
2022-08-03T05:13:14.573Z,100460.50
2022-08-03T05:15:43.150Z,100481.44
2022-08-03T05:18:13.841Z,100460.50
2022-08-03T05:20:40.760Z,100482.25
2022-08-03T05:23:07.227Z,100475.59
2022-08-03T05:25:33.680Z,100477.44
2022-08-03T05:28:00.149Z,100472.03
2022-08-03T05:30:32.621Z,100469.66
2022-08-03T05:33:01.132Z,100474.84
2022-08-03T05:35:56.037Z,100474.94
2022-08-03T05:38:15.334Z,100478.56
2022-08-03T05:40:56.717Z,100484.94
2022-08-03T05:43:24.499Z,100482.25
2022-08-03T05:46:11.467Z,100484.94
2022-08-03T05:48:37.858Z,100486.81
2022-08-03T05:51:06.617Z,100489.34
2022-08-03T05:53:33.990Z,100485.81
2022-08-03T05:56:13.190Z,100474.19
2022-08-03T05:58:43.412Z,100481.25
2022-08-03T06:01:09.964Z,100474.84
2022-08-03T06:03:36.449Z,100474.84
2022-08-03T06:06:02.949Z,100472.16
2022-08-03T06:08:29.418Z,100466.75
2022-08-03T06:10:55.832Z,100471.16
2022-08-03T06:13:22.327Z,100465.75
2022-08-03T06:15:48.814Z,100473.00
2022-08-03T06:18:15.270Z,100471.97
2022-08-03T06:20:41.712Z,100469.28
2022-08-03T06:23:08.164Z,100457.75
2022-08-03T06:25:43.079Z,100467.25
2022-08-03T06:28:19.064Z,100436.59
2022-08-03T06:30:50.823Z,100457.50
2022-08-03T06:33:17.302Z,100461.03
2022-08-03T06:35:44.700Z,100441.53
2022-08-03T06:38:12.948Z,100437.25
2022-08-03T06:40:42.302Z,100463.34
2022-08-03T06:43:12.541Z,100460.66
2022-08-03T06:45:39.238Z,100458.78
2022-08-03T06:48:07.854Z,100441.06
2022-08-03T06:50:36.572Z,100466.88
2022-08-03T06:53:04.112Z,100468.72
2022-08-03T06:55:31.619Z,100470.41
2022-08-03T06:57:59.746Z,100471.25
2022-08-03T07:00:31.280Z,100452.31
2022-08-03T07:02:58.488Z,100466.69
2022-08-03T07:05:25.377Z,100456.75
2022-08-03T07:07:55.793Z,100443.00
2022-08-03T07:10:22.260Z,100447.50
2022-08-03T07:12:52.668Z,100440.59
2022-08-03T07:15:55.471Z,100464.47
2022-08-03T07:18:10.160Z,100461.63
2022-08-03T07:20:36.743Z,100447.56
2022-08-03T07:23:03.667Z,100463.28
2022-08-03T07:25:30.149Z,100467.63
2022-08-03T07:27:56.708Z,100467.63
2022-08-03T07:30:24.683Z,100469.31
2022-08-03T07:32:51.254Z,100468.28
2022-08-03T07:35:24.684Z,100463.66
2022-08-03T07:37:54.442Z,100472.50
2022-08-03T07:40:22.227Z,100473.22
2022-08-03T07:42:48.793Z,100464.94
2022-08-03T07:45:21.340Z,100459.53
2022-08-03T07:47:53.280Z,100470.25
2022-08-03T07:50:21.061Z,100460.59
2022-08-03T07:52:47.958Z,100473.13
2022-08-03T07:55:14.432Z,100479.16
2022-08-03T07:57:40.949Z,100452.22
2022-08-03T08:00:14.922Z,100482.50
2022-08-03T08:02:41.990Z,100481.66
2022-08-03T08:05:09.104Z,100475.28
2022-08-03T08:07:35.566Z,100453.63
2022-08-03T08:10:02.209Z,100457.81
2022-08-03T08:12:28.670Z,100462.25
2022-08-03T08:14:55.148Z,100467.47
2022-08-03T08:17:23.952Z,100470.34
2022-08-03T08:19:51.728Z,100464.50
2022-08-03T08:22:30.209Z,100467.19
2022-08-03T08:24:57.758Z,100447.59
2022-08-03T08:27:24.203Z,100471.81
2022-08-03T08:29:54.536Z,100465.44
2022-08-03T08:32:23.277Z,100460.88
2022-08-03T08:34:49.819Z,100458.75
2022-08-03T08:37:16.445Z,100461.69
2022-08-03T08:39:42.931Z,100460.41
2022-08-03T08:42:10.337Z,100474.63
2022-08-03T08:44:36.934Z,100476.47
2022-08-03T08:47:04.328Z,100477.31
2022-08-03T08:49:33.010Z,100468.78
2022-08-03T08:52:01.667Z,100483.38
2022-08-03T08:54:32.467Z,100475.28
2022-08-03T08:57:02.877Z,100466.25
2022-08-03T08:59:48.033Z,100484.91
2022-08-03T09:02:16.445Z,100474.53
2022-08-03T09:04:45.532Z,100490.06
2022-08-03T09:07:20.174Z,100488.25
2022-08-03T09:10:04.799Z,100490.94
2022-08-03T09:12:42.726Z,100491.75
2022-08-03T09:15:25.464Z,100489.91
2022-08-03T09:17:54.363Z,100495.28
2022-08-03T09:20:22.411Z,100483.56
2022-08-03T09:23:09.677Z,100495.94
2022-08-03T09:26:00.114Z,100503.00
2022-08-03T09:28:59.675Z,100497.41
2022-08-03T09:31:30.132Z,100479.16
2022-08-03T09:34:00.977Z,100500.13
2022-08-03T09:36:45.826Z,100494.56
2022-08-03T09:39:17.727Z,100502.63
2022-08-03T09:41:46.660Z,100492.69
2022-08-03T09:44:24.567Z,100490.00
2022-08-03T09:46:56.118Z,100496.03
2022-08-03T09:49:23.037Z,100444.63
2022-08-03T09:52:31.317Z,100490.47
2022-08-03T09:54:36.530Z,100480.34
2022-08-03T09:57:03.170Z,100491.13
2022-08-03T09:59:32.137Z,100469.38
2022-08-03T10:02:00.842Z,100490.09
2022-08-03T10:04:27.460Z,100483.22
2022-08-03T10:07:04.790Z,100480.69
2022-08-03T10:09:31.412Z,100487.00
2022-08-03T10:11:59.936Z,100495.09
2022-08-03T10:14:30.315Z,100491.22
2022-08-03T10:16:56.836Z,100484.78
2022-08-03T10:19:23.394Z,100473.91
2022-08-03T10:21:55.165Z,100493.34
2022-08-03T10:24:26.369Z,100482.19
2022-08-03T10:27:00.493Z,100464.63
2022-08-03T10:29:28.132Z,100489.25
2022-08-03T10:31:58.836Z,100487.56
2022-08-03T10:34:28.958Z,100482.00
2022-08-03T10:36:59.992Z,100474.84
2022-08-03T10:39:29.821Z,100471.97
2022-08-03T10:41:59.796Z,100493.44
2022-08-03T10:44:37.098Z,100486.00
2022-08-03T10:47:04.645Z,100483.47
2022-08-03T10:49:33.637Z,100486.66
2022-08-03T10:52:02.607Z,100472.03
2022-08-03T10:55:03.545Z,100426.72
2022-08-03T10:57:49.671Z,100482.72
2022-08-03T11:00:25.098Z,100489.78
2022-08-03T11:03:06.951Z,100486.25
2022-08-03T11:05:36.255Z,100490.44
2022-08-03T11:08:21.182Z,100479.47
2022-08-03T11:10:48.780Z,100476.31
2022-08-03T11:13:17.396Z,100483.00
2022-08-03T11:15:46.659Z,100488.38
2022-08-03T11:18:14.548Z,100480.94
2022-08-03T11:20:51.480Z,100488.84
2022-08-03T11:24:04.486Z,100491.56
2022-08-03T11:26:22.612Z,100493.22
2022-08-03T11:28:49.431Z,100481.25
2022-08-03T11:31:48.827Z,100498.59
2022-08-03T11:34:13.577Z,100489.50
2022-08-03T11:37:17.828Z,100500.09
2022-08-03T11:39:47.423Z,100502.78
2022-08-03T11:42:22.867Z,100507.16
2022-08-03T11:44:54.346Z,100499.66
2022-08-03T11:47:22.596Z,100505.69
2022-08-03T11:49:51.868Z,100515.72
2022-08-03T11:52:18.401Z,100496.78
2022-08-03T11:54:45.649Z,100512.84
2022-08-03T11:57:12.317Z,100500.28
2022-08-03T11:59:38.988Z,100497.59
2022-08-03T12:02:16.346Z,100519.53
2022-08-03T12:05:01.301Z,100515.84
2022-08-03T12:08:03.617Z,100520.38
2022-08-03T12:10:16.778Z,100525.59
2022-08-03T12:12:46.381Z,100522.88
2022-08-03T12:15:13.448Z,100511.84
2022-08-03T12:17:41.356Z,100514.53
2022-08-03T12:20:10.264Z,100529.41
2022-08-03T12:22:38.564Z,100465.81
2022-08-03T12:25:07.847Z,100533.94
2022-08-03T12:27:35.114Z,100530.22
2022-08-03T12:30:02.122Z,100527.34
2022-08-03T12:32:29.771Z,100529.19
2022-08-03T12:35:01.889Z,100525.50
2022-08-03T12:37:29.593Z,100541.50
2022-08-03T12:40:10.140Z,100532.53
2022-08-03T12:42:39.540Z,100532.53
2022-08-03T12:45:38.541Z,100539.22
2022-08-03T12:48:09.879Z,100534.66
2022-08-03T12:50:37.330Z,100509.47
2022-08-03T12:53:07.952Z,100537.19
2022-08-03T12:55:56.230Z,100549.66
2022-08-03T12:58:35.401Z,100545.09
2022-08-03T13:01:09.499Z,100540.34
2022-08-03T13:03:50.018Z,100540.13
2022-08-03T13:06:20.436Z,100546.41
2022-08-03T13:08:48.246Z,100547.88
2022-08-03T13:11:57.236Z,100548.69
2022-08-03T13:14:20.573Z,100550.38
2022-08-03T13:16:49.092Z,100554.75
2022-08-03T13:19:16.179Z,100558.91
2022-08-03T13:21:53.383Z,100553.72
2022-08-03T13:24:30.623Z,100558.09
2022-08-03T13:26:58.172Z,100561.63
2022-08-03T13:29:24.847Z,100555.22
2022-08-03T13:31:51.658Z,100553.16
2022-08-03T13:34:23.222Z,100535.59
2022-08-03T13:39:57.360Z,100539.19
2022-08-03T13:42:25.360Z,100528.34
2022-08-03T13:44:51.919Z,100541.78
2022-08-03T13:47:22.004Z,100543.66
2022-08-03T13:49:59.918Z,100557.59
2022-08-03T13:52:32.670Z,100542.38
2022-08-03T13:55:00.148Z,100545.50
2022-08-03T13:58:04.605Z,100546.44
2022-08-03T14:00:26.391Z,100533.69
2022-08-03T14:03:01.839Z,100542.63
2022-08-03T14:05:34.146Z,100540.09
2022-08-03T14:08:04.324Z,100567.63
2022-08-03T14:10:32.113Z,100563.88
2022-08-03T14:13:00.341Z,100562.06
2022-08-03T14:15:28.459Z,100571.63
2022-08-03T14:17:55.311Z,100564.53
2022-08-03T14:20:26.006Z,100569.94
2022-08-03T14:23:06.732Z,100563.34
2022-08-03T14:25:43.440Z,100567.25
2022-08-03T14:28:18.232Z,100571.25
2022-08-03T14:30:44.814Z,100574.78
2022-08-03T14:33:11.325Z,100573.78
2022-08-03T14:35:37.842Z,100576.28
2022-08-03T14:38:04.295Z,100575.44
2022-08-03T14:40:30.822Z,100575.44
2022-08-03T14:42:57.288Z,100581.47
2022-08-03T14:45:23.783Z,100580.00
2022-08-03T14:50:28.894Z,100587.00
2022-08-03T14:50:43.244Z,100583.44
2022-08-03T14:53:10.848Z,100569.09
2022-08-03T14:55:38.755Z,100587.53
2022-08-03T14:58:19.715Z,100581.13
2022-08-03T15:00:48.673Z,100562.81
2022-08-03T15:03:16.935Z,100590.19
2022-08-03T15:05:44.129Z,100585.25
2022-08-03T15:08:10.553Z,100588.59
2022-08-03T15:10:40.446Z,100584.03
2022-08-03T15:13:12.557Z,100565.25
2022-08-03T15:15:39.587Z,100590.50
2022-08-03T15:18:06.157Z,100584.53
2022-08-03T15:20:43.837Z,100579.25
2022-08-03T15:23:11.772Z,100593.06
2022-08-03T15:26:03.722Z,100592.06
2022-08-03T15:28:24.792Z,100585.19
2022-08-03T15:30:53.001Z,100592.50
2022-08-03T15:33:19.848Z,100582.91
2022-08-03T15:35:47.459Z,100590.44
2022-08-03T15:38:13.978Z,100602.09
2022-08-03T15:40:40.531Z,100598.34
2022-08-03T15:43:07.147Z,100600.00
2022-08-03T15:45:35.416Z,100601.69
2022-08-03T15:48:03.207Z,100598.81
2022-08-03T15:50:29.618Z,100599.47
2022-08-03T15:52:56.685Z,100601.31
2022-08-03T15:55:23.218Z,100598.41
2022-08-03T15:59:09.086Z,100602.78
2022-08-03T16:00:36.237Z,100601.75
2022-08-03T16:03:02.806Z,100601.75
2022-08-03T16:05:29.460Z,100602.63
2022-08-03T16:08:02.842Z,100599.66
2022-08-03T16:10:32.164Z,100614.06
2022-08-03T16:12:59.904Z,100615.53
2022-08-03T16:15:26.524Z,100613.06
2022-08-03T16:17:53.047Z,100616.41
2022-08-03T16:20:31.108Z,100608.31
2022-08-03T16:23:03.385Z,100613.47
2022-08-03T16:25:38.104Z,100617.88
2022-08-03T16:28:08.060Z,100617.66
2022-08-03T16:30:39.944Z,100605.97
2022-08-03T16:33:06.388Z,100594.88
2022-08-03T16:35:32.939Z,100623.91
2022-08-03T16:37:59.419Z,100622.69
2022-08-03T16:40:26.535Z,100621.66
2022-08-03T16:42:53.129Z,100633.09
2022-08-03T16:45:19.708Z,100624.81
2022-08-03T16:47:46.148Z,100614.19
2022-08-03T16:50:19.136Z,100623.56
2022-08-03T16:52:48.317Z,100626.28
2022-08-03T16:55:15.990Z,100627.09
2022-08-03T16:58:03.346Z,100629.63
2022-08-03T17:00:33.326Z,100633.16
2022-08-03T17:03:04.434Z,100633.16
2022-08-03T17:05:47.303Z,100591.97
2022-08-03T17:08:14.782Z,100641.06
2022-08-03T17:10:45.260Z,100642.50
2022-08-03T17:13:15.202Z,100621.06
2022-08-03T17:15:58.088Z,100622.41
2022-08-03T17:18:32.379Z,100651.97
2022-08-03T17:21:03.351Z,100653.13
2022-08-03T17:23:51.769Z,100656.81
2022-08-03T17:26:21.872Z,100654.22
2022-08-03T17:28:57.333Z,100598.91
2022-08-03T17:31:32.242Z,100652.03
2022-08-03T17:34:12.625Z,100657.78
2022-08-03T17:37:03.329Z,100656.50
2022-08-03T17:39:48.373Z,100658.09
2022-08-03T17:42:30.183Z,100657.81
2022-08-03T17:44:58.766Z,100657.53
2022-08-03T17:47:41.440Z,100655.78
2022-08-03T17:50:24.192Z,100627.25
2022-08-03T17:53:00.888Z,100661.28
2022-08-03T17:55:58.553Z,100662.00
2022-08-03T17:58:54.947Z,100658.00
2022-08-03T18:01:59.842Z,100655.03
2022-08-03T18:04:38.090Z,100658.41
2022-08-03T18:07:11.377Z,100663.13
2022-08-03T18:10:04.046Z,100664.06
2022-08-03T18:12:53.907Z,100667.31
2022-08-03T18:15:37.158Z,100668.34
2022-08-03T18:18:10.590Z,100668.34
2022-08-03T18:20:41.749Z,100674.75
2022-08-03T18:23:24.846Z,100672.06
2022-08-03T18:26:00.286Z,100675.59
2022-08-03T18:28:28.872Z,100670.00
2022-08-03T18:30:57.853Z,100662.19
2022-08-03T18:34:16.917Z,100678.66
2022-08-03T18:36:29.671Z,100660.88
2022-08-03T18:38:59.364Z,100675.13
2022-08-03T18:41:32.334Z,100675.97
2022-08-03T18:44:06.681Z,100678.84
2022-08-03T18:46:49.294Z,100675.00
2022-08-03T18:49:34.873Z,100681.72
2022-08-03T18:52:12.135Z,100690.81
2022-08-03T18:55:01.028Z,100694.22
2022-08-03T18:57:38.184Z,100690.91
2022-08-03T19:00:05.525Z,100692.94
2022-08-03T19:02:55.915Z,100684.75
2022-08-03T19:05:53.025Z,100707.16
2022-08-03T19:08:26.986Z,100701.28
2022-08-03T19:10:57.842Z,100706.22
2022-08-03T19:13:36.072Z,100706.22
2022-08-03T19:16:04.619Z,100708.25
2022-08-03T19:18:37.487Z,100718.16
2022-08-03T19:21:15.745Z,100709.25
2022-08-03T19:23:45.115Z,100712.78
2022-08-03T19:26:30.144Z,100719.03
2022-08-03T19:28:58.497Z,100713.81
2022-08-03T19:31:30.972Z,100717.34
2022-08-03T19:33:59.843Z,100717.72
2022-08-03T19:36:28.608Z,100703.63
2022-08-03T19:38:56.511Z,100718.44
2022-08-03T19:41:27.373Z,100719.97
2022-08-03T19:44:00.345Z,100618.75
2022-08-03T19:46:34.001Z,100708.38
2022-08-03T19:49:04.529Z,100718.78
2022-08-03T19:52:01.960Z,100722.34
2022-08-03T19:54:29.456Z,100718.44
2022-08-03T19:56:58.336Z,100721.25
2022-08-03T19:59:26.416Z,100713.03
2022-08-03T20:01:53.023Z,100624.19
2022-08-03T20:04:21.307Z,100723.00
2022-08-03T20:06:49.656Z,100740.72
2022-08-03T20:09:17.975Z,100737.81
2022-08-03T20:11:45.161Z,100734.09
2022-08-03T20:14:13.220Z,100728.22
2022-08-03T20:16:48.410Z,100739.78
2022-08-03T20:19:16.554Z,100736.91
2022-08-03T20:21:49.968Z,100742.13
2022-08-03T20:24:24.630Z,100749.19
2022-08-03T20:27:15.263Z,100749.84
2022-08-03T20:30:07.480Z,100760.47
2022-08-03T20:32:34.348Z,100738.28
2022-08-03T20:35:00.988Z,100752.16
2022-08-03T20:37:27.440Z,100743.78
2022-08-03T20:39:57.049Z,100753.88
2022-08-03T20:42:24.005Z,100748.16
2022-08-03T20:45:05.208Z,100758.91
2022-08-03T20:47:36.315Z,100730.03
2022-08-03T20:50:08.997Z,100747.94
2022-08-03T20:52:43.959Z,100739.72
2022-08-03T20:55:17.113Z,100749.59
2022-08-03T20:57:43.554Z,100737.03
2022-08-03T21:00:19.486Z,100748.59
2022-08-03T21:02:48.636Z,100756.53
2022-08-03T21:05:15.112Z,100749.44
2022-08-03T21:08:05.126Z,100723.06
2022-08-03T21:10:33.680Z,100697.47
2022-08-03T21:13:18.078Z,100752.78
2022-08-03T21:16:06.287Z,100751.94
2022-08-03T21:18:44.324Z,100749.09
2022-08-03T21:21:14.947Z,100746.38
2022-08-03T21:23:48.754Z,100747.00
2022-08-03T21:26:20.926Z,100718.50
2022-08-03T21:28:49.321Z,100742.00
2022-08-03T21:31:22.362Z,100751.56
2022-08-03T21:33:53.660Z,100723.72
2022-08-03T21:36:20.132Z,100729.06
2022-08-03T21:38:47.609Z,100737.91
2022-08-03T21:41:23.370Z,100737.91
2022-08-03T21:43:49.827Z,100735.22
2022-08-03T21:46:18.921Z,100736.88
2022-08-03T21:48:48.268Z,100739.56
2022-08-03T21:51:18.375Z,100738.56
2022-08-03T21:53:59.576Z,100735.03
2022-08-03T21:56:36.914Z,100730.66
2022-08-03T21:59:08.619Z,100730.47
2022-08-03T22:01:39.553Z,100736.69
2022-08-03T22:04:07.386Z,100722.63
2022-08-03T22:06:42.283Z,100734.84
2022-08-03T22:09:09.057Z,100730.00
2022-08-03T22:11:37.461Z,100733.84
2022-08-03T22:14:04.596Z,100729.28
2022-08-03T22:16:31.484Z,100727.41
2022-08-03T22:18:58.030Z,100724.72
2022-08-03T22:21:36.288Z,100724.72
2022-08-03T22:24:05.260Z,100730.09
2022-08-03T22:26:35.439Z,100738.00
2022-08-03T22:29:07.239Z,100739.88
2022-08-03T22:31:58.239Z,100724.59
2022-08-03T22:34:26.905Z,100740.72
2022-08-03T22:36:57.129Z,100738.84
2022-08-03T22:39:27.333Z,100733.44
2022-08-03T22:41:54.283Z,100724.97
2022-08-03T22:44:21.850Z,100739.88
2022-08-03T22:46:48.556Z,100739.69
2022-08-03T22:49:16.361Z,100719.59
2022-08-03T22:51:43.199Z,100738.84
2022-08-03T22:54:11.838Z,100749.47
2022-08-03T22:56:38.990Z,100702.69
2022-08-03T22:59:41.266Z,100725.16
2022-08-03T23:01:56.370Z,100746.75
2022-08-03T23:04:26.150Z,100736.69
2022-08-03T23:06:56.705Z,100689.59
2022-08-03T23:09:24.256Z,100743.88
2022-08-03T23:11:53.287Z,100737.19
2022-08-03T23:14:22.367Z,100742.19
2022-08-03T23:16:50.712Z,100753.00
2022-08-03T23:19:25.289Z,100749.28
2022-08-03T23:22:02.777Z,100745.72
2022-08-03T23:24:33.213Z,100726.66
2022-08-03T23:27:02.901Z,100746.59
2022-08-03T23:29:31.292Z,100745.28
2022-08-03T23:31:59.430Z,100753.00
2022-08-03T23:34:46.107Z,100748.44
2022-08-03T23:37:14.904Z,100745.56
2022-08-03T23:39:44.706Z,100742.19
2022-08-03T23:42:13.103Z,100738.50
2022-08-03T23:44:42.788Z,100734.94
2022-08-03T23:47:09.501Z,100737.63
2022-08-03T23:49:36.027Z,100733.00
2022-08-03T23:52:11.171Z,100742.84
2022-08-03T23:54:59.253Z,100738.50
2022-08-03T23:57:35.104Z,100725.84
